There are multiple Weather-warnings   Click here for more information


Meteo18 Weather Cam more information Meteo18 Weather Cam


Thunder radar more information blitzortung!


warning for Snow/Ice more information rain snow radar


Visit our other weather sites:

Template documentation
and downloads

And another site



Weather Underground History page Text

Daily Summary for August 16, 2017 Units:  Both    English   Metric
« Previous Day
Next Day »
Daily Weekly Monthly Yearly Custom
  High: Low: Average:
Temperature: TemperatureC °F /  -17.8 °C 15.7 °F /  -9.1 °C 20.6 °F /  -6.3 °C
Dew Point: DewpointC °F /  -17.8 °C 13.3 °F /  -10.4 °C 16.6 °F /  -8.6 °C
Humidity: Humidity % 54 % 79 %
Wind Speed: WindSpeedKMH mph /  0 km/h - 2.6 mph /  4.2 km/h
Wind Gust: WindSpeedGustKMH mph /  0 km/h - -
Wind:- - WSW
Pressure: PressurehPa in /  0 hPa 1020.5 in /  34554.1 hPa -
Precipitation: 0.3 in /  7.62 mm    
Historical Graphs
 
 
Tabular Data for August 16, 2017
Time Temperature Dew Point Pressure Wind Wind Speed Wind Gust Humidity Rainfall Rate (Hourly)
TemperatureC °F /  -17.8 °C DewpointC °F /  -17.8 °C PressurehPa in /  0 hPa Calm     Humidity % HourlyPrecipMM in /  0 mm
00:02 20.3 °F /  -6.5 °C 18.6 °F /  -7.4 °C 1021.2 in /  34577.8 hPa SSW 4.8 mph /  7.7 km/h 12.9 mph /  20.8 km/h 90 % 0.0 in /  0 mm
00:07 20.3 °F /  -6.5 °C 18.6 °F /  -7.4 °C 1021.2 in /  34577.8 hPa SW 4.8 mph /  7.7 km/h 12.9 mph /  20.8 km/h 90 % 0.0 in /  0 mm
00:12 20.3 °F /  -6.5 °C 18.6 °F /  -7.4 °C 1021.2 in /  34577.8 hPa West 6.4 mph /  10.3 km/h 12.9 mph /  20.8 km/h 90 % 0.0 in /  0 mm
00:17 20.3 °F /  -6.5 °C 18.6 °F /  -7.4 °C 1021.2 in /  34577.8 hPa SW 6.4 mph /  10.3 km/h 12.9 mph /  20.8 km/h 90 % 0.0 in /  0 mm
00:22 20.3 °F /  -6.5 °C 18.6 °F /  -7.4 °C 1021.2 in /  34577.8 hPa WSW 4.8 mph /  7.7 km/h 12.9 mph /  20.8 km/h 90 % 0.0 in /  0 mm
00:32 20.2 °F /  -6.6 °C 18.5 °F /  -7.5 °C 1021.2 in /  34577.8 hPa WSW 3.2 mph /  5.1 km/h 11.3 mph /  18.2 km/h 90 % 0.0 in /  0 mm
00:37 20.2 °F /  -6.6 °C 18.5 °F /  -7.5 °C 1021.2 in /  34577.8 hPa SW 3.2 mph /  5.1 km/h 11.3 mph /  18.2 km/h 90 % 0.0 in /  0 mm
00:42 20.1 °F /  -6.6 °C 18.6 °F /  -7.4 °C 1021.2 in /  34577.8 hPa WSW 9.7 mph /  15.6 km/h 11.3 mph /  18.2 km/h 91 % 0.0 in /  0 mm
00:52 20.0 °F /  -6.7 °C 18.5 °F /  -7.5 °C 1021.2 in /  34577.8 hPa WSW 6.4 mph /  10.3 km/h 11.3 mph /  18.2 km/h 91 % 0.0 in /  0 mm
00:57 19.9 °F /  -6.7 °C 18.4 °F /  -7.6 °C 1021.2 in /  34577.8 hPa West 3.2 mph /  5.1 km/h 11.3 mph /  18.2 km/h 91 % 0.0 in /  0 mm
01:02 19.8 °F /  -6.8 °C 18.3 °F /  -7.6 °C 1021.2 in /  34577.8 hPa WSW 3.2 mph /  5.1 km/h 11.3 mph /  18.2 km/h 91 % 0.0 in /  0 mm
01:12 19.7 °F /  -6.8 °C 18.4 °F /  -7.6 °C 1021.2 in /  34577.8 hPa West 1.6 mph /  2.6 km/h 11.3 mph /  18.2 km/h 92 % 0.0 in /  0 mm
01:17 19.6 °F /  -6.9 °C 18.3 °F /  -7.6 °C 1021.2 in /  34577.8 hPa WNW 3.2 mph /  5.1 km/h 9.7 mph /  15.6 km/h 92 % 0.0 in /  0 mm
01:22 19.6 °F /  -6.9 °C 18.3 °F /  -7.6 °C 1021.2 in /  34577.8 hPa WNW 1.6 mph /  2.6 km/h 6.4 mph /  10.3 km/h 92 % 0.0 in /  0 mm
01:27 19.5 °F /  -6.9 °C 18.2 °F /  -7.7 °C 1021.2 in /  34577.8 hPa West 4.8 mph /  7.7 km/h 6.4 mph /  10.3 km/h 92 % 0.0 in /  0 mm
01:32 19.5 °F /  -6.9 °C 18.2 °F /  -7.7 °C 1021.2 in /  34577.8 hPa WNW 6.4 mph /  10.3 km/h 8.0 mph /  12.9 km/h 92 % 0.0 in /  0 mm
01:42 19.6 °F /  -6.9 °C 18.3 °F /  -7.6 °C 1021.2 in /  34577.8 hPa West 6.4 mph /  10.3 km/h 9.7 mph /  15.6 km/h 92 % 0.0 in /  0 mm
01:47 19.6 °F /  -6.9 °C 18.3 °F /  -7.6 °C 1021.2 in /  34577.8 hPa West 6.4 mph /  10.3 km/h 11.3 mph /  18.2 km/h 92 % 0.0 in /  0 mm
01:57 19.5 °F /  -6.9 °C 18.2 °F /  -7.7 °C 1021.2 in /  34577.8 hPa WNW 1.6 mph /  2.6 km/h 12.9 mph /  20.8 km/h 92 % 0.0 in /  0 mm
02:02 19.4 °F /  -7 °C 18.1 °F /  -7.7 °C 1021.2 in /  34577.8 hPa WSW 1.6 mph /  2.6 km/h 9.7 mph /  15.6 km/h 92 % 0.0 in /  0 mm
02:07 19.3 °F /  -7.1 °C 18.0 °F /  -7.8 °C 1021.2 in /  34577.8 hPa West 3.2 mph /  5.1 km/h 8.0 mph /  12.9 km/h 92 % 0.0 in /  0 mm
02:12 19.3 °F /  -7.1 °C 18.0 °F /  -7.8 °C 1021.2 in /  34577.8 hPa WSW 3.2 mph /  5.1 km/h 4.8 mph /  7.7 km/h 92 % 0.0 in /  0 mm
02:17 19.2 °F /  -7.1 °C 17.9 °F /  -7.8 °C 1020.9 in /  34567.7 hPa West 3.2 mph /  5.1 km/h 6.4 mph /  10.3 km/h 92 % 0.0 in /  0 mm
02:22 19.2 °F /  -7.1 °C 17.9 °F /  -7.8 °C 1020.9 in /  34567.7 hPa WSW 3.2 mph /  5.1 km/h 6.4 mph /  10.3 km/h 92 % 0.0 in /  0 mm
02:32 19.0 °F /  -7.2 °C 17.7 °F /  -7.9 °C 1020.9 in /  34567.7 hPa West 1.6 mph /  2.6 km/h 8.0 mph /  12.9 km/h 92 % 0.0 in /  0 mm
02:42 18.9 °F /  -7.3 °C 17.7 °F /  -7.9 °C 1020.9 in /  34567.7 hPa WSW 1.6 mph /  2.6 km/h 8.0 mph /  12.9 km/h 93 % 0.0 in /  0 mm
02:47 18.8 °F /  -7.3 °C 17.6 °F /  -8 °C 1020.9 in /  34567.7 hPa Calm   6.4 mph /  10.3 km/h 93 % 0.0 in /  0 mm
02:52 18.8 °F /  -7.3 °C 17.6 °F /  -8 °C 1020.9 in /  34567.7 hPa West 3.2 mph /  5.1 km/h 6.4 mph /  10.3 km/h 93 % 0.0 in /  0 mm
02:57 18.8 °F /  -7.3 °C 17.6 °F /  -8 °C 1020.9 in /  34567.7 hPa NW 1.6 mph /  2.6 km/h 6.4 mph /  10.3 km/h 93 % 0.0 in /  0 mm
03:02 18.7 °F /  -7.4 °C 17.5 °F /  -8.1 °C 1020.9 in /  34567.7 hPa Calm   6.4 mph /  10.3 km/h 93 % 0.0 in /  0 mm
03:12 18.6 °F /  -7.4 °C 17.4 °F /  -8.1 °C 1020.9 in /  34567.7 hPa SW 3.2 mph /  5.1 km/h 3.2 mph /  5.1 km/h 93 % 0.0 in /  0 mm
03:17 18.4 °F /  -7.6 °C 17.2 °F /  -8.2 °C 1020.9 in /  34567.7 hPa WSW 1.6 mph /  2.6 km/h 3.2 mph /  5.1 km/h 93 % 0.0 in /  0 mm
03:22 18.4 °F /  -7.6 °C 17.2 °F /  -8.2 °C 1020.9 in /  34567.7 hPa Calm   3.2 mph /  5.1 km/h 93 % 0.0 in /  0 mm
03:27 18.2 °F /  -7.7 °C 17.0 °F /  -8.3 °C 1020.9 in /  34567.7 hPa Calm   3.2 mph /  5.1 km/h 93 % 0.0 in /  0 mm
03:32 17.8 °F /  -7.9 °C 16.7 °F /  -8.5 °C 1020.9 in /  34567.7 hPa Calm   3.2 mph /  5.1 km/h 93 % 0.0 in /  0 mm
03:37 17.7 °F /  -7.9 °C 16.6 °F /  -8.6 °C 1021.2 in /  34577.8 hPa Calm   3.2 mph /  5.1 km/h 93 % 0.0 in /  0 mm
03:42 17.6 °F /  -8 °C 16.6 °F /  -8.6 °C 1021.2 in /  34577.8 hPa SSW 3.2 mph /  5.1 km/h 3.2 mph /  5.1 km/h 94 % 0.0 in /  0 mm
03:47 17.6 °F /  -8 °C 16.8 °F /  -8.4 °C 1021.2 in /  34577.8 hPa SW 4.8 mph /  7.7 km/h 4.8 mph /  7.7 km/h 95 % 0.0 in /  0 mm
03:52 17.4 °F /  -8.1 °C 16.4 °F /  -8.7 °C 1021.2 in /  34577.8 hPa SW 3.2 mph /  5.1 km/h 6.4 mph /  10.3 km/h 94 % 0.0 in /  0 mm
03:57 17.4 °F /  -8.1 °C 16.6 °F /  -8.6 °C 1021.2 in /  34577.8 hPa SSW 3.2 mph /  5.1 km/h 6.4 mph /  10.3 km/h 95 % 0.0 in /  0 mm
04:02 17.4 °F /  -8.1 °C 16.6 °F /  -8.6 °C 1021.2 in /  34577.8 hPa Calm   6.4 mph /  10.3 km/h 95 % 0.0 in /  0 mm
04:07 17.6 °F /  -8 °C 17.0 °F /  -8.3 °C 1021.2 in /  34577.8 hPa West 1.6 mph /  2.6 km/h 6.4 mph /  10.3 km/h 96 % 0.0 in /  0 mm
04:12 17.6 °F /  -8 °C 16.8 °F /  -8.4 °C 1021.2 in /  34577.8 hPa Calm   6.4 mph /  10.3 km/h 95 % 0.0 in /  0 mm
04:17 17.6 °F /  -8 °C 16.8 °F /  -8.4 °C 1021.2 in /  34577.8 hPa SW 1.6 mph /  2.6 km/h 6.4 mph /  10.3 km/h 95 % 0.0 in /  0 mm
04:22 17.6 °F /  -8 °C 16.8 °F /  -8.4 °C 1021.2 in /  34577.8 hPa Calm   6.4 mph /  10.3 km/h 95 % 0.0 in /  0 mm
04:27 17.4 °F /  -8.1 °C 16.6 °F /  -8.6 °C 1021.2 in /  34577.8 hPa Calm   6.4 mph /  10.3 km/h 95 % 0.0 in /  0 mm
04:32 17.3 °F /  -8.2 °C 16.5 °F /  -8.6 °C 1021.2 in /  34577.8 hPa Calm   4.8 mph /  7.7 km/h 95 % 0.0 in /  0 mm
04:37 17.1 °F /  -8.3 °C 16.3 °F /  -8.7 °C 1021.2 in /  34577.8 hPa Calm   1.6 mph /  2.6 km/h 95 % 0.0 in /  0 mm
04:42 16.9 °F /  -8.4 °C 16.1 °F /  -8.8 °C 1021.2 in /  34577.8 hPa SSW 3.2 mph /  5.1 km/h   95 % 0.0 in /  0 mm
04:47 17.1 °F /  -8.3 °C 16.5 °F /  -8.6 °C 1021.2 in /  34577.8 hPa SW 1.6 mph /  2.6 km/h 4.8 mph /  7.7 km/h 96 % 0.0 in /  0 mm
04:52 17.1 °F /  -8.3 °C 16.5 °F /  -8.6 °C 1021.2 in /  34577.8 hPa Calm   4.8 mph /  7.7 km/h 96 % 0.0 in /  0 mm
04:57 17.1 °F /  -8.3 °C 16.5 °F /  -8.6 °C 1021.2 in /  34577.8 hPa Calm   4.8 mph /  7.7 km/h 96 % 0.0 in /  0 mm
05:02 16.8 °F /  -8.4 °C 16.0 °F /  -8.9 °C 1021.2 in /  34577.8 hPa Calm   4.8 mph /  7.7 km/h 95 % 0.0 in /  0 mm
05:17 16.7 °F /  -8.5 °C 16.1 °F /  -8.8 °C 1021.2 in /  34577.8 hPa Calm   1.6 mph /  2.6 km/h 96 % 0.0 in /  0 mm
05:22 16.8 °F /  -8.4 °C 16.3 °F /  -8.7 °C 1021.2 in /  34577.8 hPa Calm   1.6 mph /  2.6 km/h 97 % 0.0 in /  0 mm
05:32 16.6 °F /  -8.6 °C 16.0 °F /  -8.9 °C 1021.2 in /  34577.8 hPa SW 1.6 mph /  2.6 km/h 1.6 mph /  2.6 km/h 96 % 0.0 in /  0 mm
05:42 16.8 °F /  -8.4 °C 16.2 °F /  -8.8 °C 1021.2 in /  34577.8 hPa Calm   1.6 mph /  2.6 km/h 96 % 0.0 in /  0 mm
05:47 16.8 °F /  -8.4 °C 16.2 °F /  -8.8 °C 1021.2 in /  34577.8 hPa Calm   4.8 mph /  7.7 km/h 96 % 0.0 in /  0 mm
05:52 16.7 °F /  -8.5 °C 16.1 °F /  -8.8 °C 1021.2 in /  34577.8 hPa Calm   4.8 mph /  7.7 km/h 96 % 0.0 in /  0 mm
05:57 16.4 °F /  -8.7 °C 15.8 °F /  -9 °C 1021.2 in /  34577.8 hPa Calm   3.2 mph /  5.1 km/h 96 % 0.0 in /  0 mm
06:02 16.2 °F /  -8.8 °C 15.6 °F /  -9.1 °C 1021.2 in /  34577.8 hPa Calm     96 % 0.0 in /  0 mm
06:12 16.2 °F /  -8.8 °C 15.6 °F /  -9.1 °C 1021.2 in /  34577.8 hPa Calm     96 % 0.0 in /  0 mm
06:17 16.1 °F /  -8.8 °C 15.5 °F /  -9.2 °C 1021.2 in /  34577.8 hPa Calm     96 % 0.0 in /  0 mm
06:22 16.1 °F /  -8.8 °C 15.5 °F /  -9.2 °C 1021.6 in /  34591.4 hPa Calm     96 % 0.0 in /  0 mm
06:27 15.9 °F /  -8.9 °C 15.3 °F /  -9.3 °C 1021.6 in /  34591.4 hPa Calm     96 % 0.0 in /  0 mm
06:32 15.8 °F /  -9 °C 15.2 °F /  -9.3 °C 1021.6 in /  34591.4 hPa Calm     96 % 0.0 in /  0 mm
06:42 15.8 °F /  -9 °C 15.2 °F /  -9.3 °C 1021.6 in /  34591.4 hPa Calm   1.6 mph /  2.6 km/h 96 % 0.0 in /  0 mm
06:52 15.8 °F /  -9 °C 15.2 °F /  -9.3 °C 1021.6 in /  34591.4 hPa Calm   1.6 mph /  2.6 km/h 96 % 0.0 in /  0 mm
06:57 15.7 °F /  -9.1 °C 15.1 °F /  -9.4 °C 1021.6 in /  34591.4 hPa Calm     96 % 0.3 in /  7.62 mm
07:02 15.7 °F /  -9.1 °C 15.1 °F /  -9.4 °C 1021.6 in /  34591.4 hPa Calm     96 % 0.3 in /  7.62 mm
07:12 15.7 °F /  -9.1 °C 15.2 °F /  -9.3 °C 1021.6 in /  34591.4 hPa Calm     97 % 0.3 in /  7.62 mm
07:17 15.7 °F /  -9.1 °C 15.2 °F /  -9.3 °C 1021.6 in /  34591.4 hPa Calm     97 % 0.3 in /  7.62 mm
07:22 15.8 °F /  -9 °C 15.3 °F /  -9.3 °C 1021.9 in /  34601.5 hPa Calm     97 % 0.3 in /  7.62 mm
07:27 15.9 °F /  -8.9 °C 15.4 °F /  -9.2 °C 1021.6 in /  34591.4 hPa Calm     97 % 0.3 in /  7.62 mm
07:32 16.0 °F /  -8.9 °C 15.5 °F /  -9.2 °C 1021.6 in /  34591.4 hPa Calm     97 % 0.3 in /  7.62 mm
07:42 16.2 °F /  -8.8 °C 15.7 °F /  -9.1 °C 1021.9 in /  34601.5 hPa Calm     97 % 0.3 in /  7.62 mm
07:47 16.4 °F /  -8.7 °C 15.9 °F /  -8.9 °C 1021.9 in /  34601.5 hPa Calm     97 % 0.3 in /  7.62 mm
07:52 16.7 °F /  -8.5 °C 16.2 °F /  -8.8 °C 1021.9 in /  34601.5 hPa Calm     97 % 0.0 in /  0 mm
08:02 17.1 °F /  -8.3 °C 16.6 °F /  -8.6 °C 1021.9 in /  34601.5 hPa Calm     97 % 0.0 in /  0 mm
08:12 17.5 °F /  -8.1 °C 17.0 °F /  -8.3 °C 1021.9 in /  34601.5 hPa Calm     97 % 0.0 in /  0 mm
08:17 17.8 °F /  -7.9 °C 17.3 °F /  -8.2 °C 1021.9 in /  34601.5 hPa Calm     97 % 0.0 in /  0 mm
08:22 17.6 °F /  -8 °C 17.0 °F /  -8.3 °C 1021.9 in /  34601.5 hPa Calm     96 % 0.0 in /  0 mm
08:27 17.6 °F /  -8 °C 17.0 °F /  -8.3 °C 1021.9 in /  34601.5 hPa Calm     96 % 0.0 in /  0 mm
08:32 17.6 °F /  -8 °C 17.0 °F /  -8.3 °C 1021.9 in /  34601.5 hPa NE 1.6 mph /  2.6 km/h   96 % 0.0 in /  0 mm
08:42 17.4 °F /  -8.1 °C 16.8 °F /  -8.4 °C 1021.9 in /  34601.5 hPa ENE 1.6 mph /  2.6 km/h 3.2 mph /  5.1 km/h 96 % 0.0 in /  0 mm
08:52 17.4 °F /  -8.1 °C 16.8 °F /  -8.4 °C 1021.9 in /  34601.5 hPa Calm   4.8 mph /  7.7 km/h 96 % 0.0 in /  0 mm
09:02 17.6 °F /  -8 °C 17.0 °F /  -8.3 °C 1021.9 in /  34601.5 hPa NNE 1.6 mph /  2.6 km/h 3.2 mph /  5.1 km/h 96 % 0.0 in /  0 mm
09:12 17.6 °F /  -8 °C 17.0 °F /  -8.3 °C 1021.9 in /  34601.5 hPa Calm   1.6 mph /  2.6 km/h 96 % 0.0 in /  0 mm
09:17 17.7 °F /  -7.9 °C 16.9 °F /  -8.4 °C 1021.9 in /  34601.5 hPa Calm   3.2 mph /  5.1 km/h 95 % 0.0 in /  0 mm
09:22 17.8 °F /  -7.9 °C 17.0 °F /  -8.3 °C 1021.9 in /  34601.5 hPa ENE 3.2 mph /  5.1 km/h 3.2 mph /  5.1 km/h 95 % 0.0 in /  0 mm
09:27 17.9 °F /  -7.8 °C 17.1 °F /  -8.3 °C 1021.9 in /  34601.5 hPa East 3.2 mph /  5.1 km/h 4.8 mph /  7.7 km/h 95 % 0.0 in /  0 mm
09:32 17.9 °F /  -7.8 °C 17.1 °F /  -8.3 °C 1021.9 in /  34601.5 hPa ENE 3.2 mph /  5.1 km/h 4.8 mph /  7.7 km/h 95 % 0.0 in /  0 mm
09:42 18.0 °F /  -7.8 °C 17.2 °F /  -8.2 °C 1021.9 in /  34601.5 hPa NE 3.2 mph /  5.1 km/h 6.4 mph /  10.3 km/h 95 % 0.0 in /  0 mm
09:52 18.1 °F /  -7.7 °C 17.3 °F /  -8.2 °C 1021.6 in /  34591.4 hPa NNE 3.2 mph /  5.1 km/h 6.4 mph /  10.3 km/h 95 % 0.0 in /  0 mm
09:57 18.1 °F /  -7.7 °C 17.3 °F /  -8.2 °C 1021.9 in /  34601.5 hPa NE 4.8 mph /  7.7 km/h 6.4 mph /  10.3 km/h 95 % 0.0 in /  0 mm
10:02 18.1 °F /  -7.7 °C 17.3 °F /  -8.2 °C 1021.9 in /  34601.5 hPa NE 4.8 mph /  7.7 km/h 6.4 mph /  10.3 km/h 95 % 0.0 in /  0 mm
10:12 18.3 °F /  -7.6 °C 17.3 °F /  -8.2 °C 1021.9 in /  34601.5 hPa Calm   6.4 mph /  10.3 km/h 94 % 0.0 in /  0 mm
10:17 18.4 °F /  -7.6 °C 17.4 °F /  -8.1 °C 1021.9 in /  34601.5 hPa Calm   6.4 mph /  10.3 km/h 94 % 0.0 in /  0 mm
10:22 18.4 °F /  -7.6 °C 17.4 °F /  -8.1 °C 1021.9 in /  34601.5 hPa East 1.6 mph /  2.6 km/h 4.8 mph /  7.7 km/h 94 % 0.0 in /  0 mm
10:32 18.8 °F /  -7.3 °C 17.8 °F /  -7.9 °C 1021.9 in /  34601.5 hPa Calm   1.6 mph /  2.6 km/h 94 % 0.0 in /  0 mm
10:37 19.0 °F /  -7.2 °C 17.8 °F /  -7.9 °C 1022.2 in /  34611.7 hPa Calm   1.6 mph /  2.6 km/h 93 % 0.0 in /  0 mm
10:42 19.1 °F /  -7.2 °C 17.9 °F /  -7.8 °C 1022.2 in /  34611.7 hPa Calm   1.6 mph /  2.6 km/h 93 % 0.0 in /  0 mm
10:47 19.3 °F /  -7.1 °C 18.0 °F /  -7.8 °C 1022.2 in /  34611.7 hPa Calm   1.6 mph /  2.6 km/h 92 % 0.0 in /  0 mm
10:52 19.4 °F /  -7 °C 17.9 °F /  -7.8 °C 1022.2 in /  34611.7 hPa Calm   1.6 mph /  2.6 km/h 91 % 0.0 in /  0 mm
10:57 19.4 °F /  -7 °C 17.9 °F /  -7.8 °C 1022.2 in /  34611.7 hPa Calm   1.6 mph /  2.6 km/h 91 % 0.0 in /  0 mm
11:02 19.5 °F /  -6.9 °C 18.0 °F /  -7.8 °C 1022.2 in /  34611.7 hPa Calm   3.2 mph /  5.1 km/h 91 % 0.0 in /  0 mm
11:12 19.9 °F /  -6.7 °C 18.2 °F /  -7.7 °C 1022.2 in /  34611.7 hPa Calm   3.2 mph /  5.1 km/h 90 % 0.0 in /  0 mm
11:17 19.9 °F /  -6.7 °C 17.9 °F /  -7.8 °C 1022.2 in /  34611.7 hPa Calm   1.6 mph /  2.6 km/h 88 % 0.0 in /  0 mm
11:22 20.0 °F /  -6.7 °C 18.0 °F /  -7.8 °C 1022.2 in /  34611.7 hPa SSW 1.6 mph /  2.6 km/h 3.2 mph /  5.1 km/h 88 % 0.0 in /  0 mm
11:32 20.2 °F /  -6.6 °C 18.0 °F /  -7.8 °C 1022.2 in /  34611.7 hPa Calm   3.2 mph /  5.1 km/h 87 % 0.0 in /  0 mm
11:42 20.8 °F /  -6.2 °C 18.4 °F /  -7.6 °C 1022.2 in /  34611.7 hPa SSW 1.6 mph /  2.6 km/h 6.4 mph /  10.3 km/h 86 % 0.0 in /  0 mm
11:47 20.9 °F /  -6.2 °C 17.9 °F /  -7.8 °C 1022.2 in /  34611.7 hPa SW 3.2 mph /  5.1 km/h 6.4 mph /  10.3 km/h 83 % 0.0 in /  0 mm
11:52 20.9 °F /  -6.2 °C 18.1 °F /  -7.7 °C 1022.2 in /  34611.7 hPa South 4.8 mph /  7.7 km/h 8.0 mph /  12.9 km/h 84 % 0.0 in /  0 mm
11:57 21.3 °F /  -5.9 °C 18.3 °F /  -7.6 °C 1022.2 in /  34611.7 hPa SSW 4.8 mph /  7.7 km/h 8.0 mph /  12.9 km/h 83 % 0.0 in /  0 mm
12:02 21.4 °F /  -5.9 °C 18.0 °F /  -7.8 °C 1022.2 in /  34611.7 hPa SSE 3.2 mph /  5.1 km/h 8.0 mph /  12.9 km/h 81 % 0.0 in /  0 mm
12:12 21.8 °F /  -5.7 °C 18.4 °F /  -7.6 °C 1022.2 in /  34611.7 hPa SSW 6.4 mph /  10.3 km/h 9.7 mph /  15.6 km/h 81 % 0.0 in /  0 mm
12:17 21.7 °F /  -5.7 °C 17.9 °F /  -7.8 °C 1022.2 in /  34611.7 hPa Calm   6.4 mph /  10.3 km/h 79 % 0.0 in /  0 mm
12:22 21.7 °F /  -5.7 °C 18.1 °F /  -7.7 °C 1022.2 in /  34611.7 hPa Calm   6.4 mph /  10.3 km/h 80 % 0.0 in /  0 mm
12:32 22.0 °F /  -5.6 °C 18.2 °F /  -7.7 °C 1022.2 in /  34611.7 hPa SSW 6.4 mph /  10.3 km/h 6.4 mph /  10.3 km/h 79 % 0.0 in /  0 mm
12:42 21.7 °F /  -5.7 °C 18.1 °F /  -7.7 °C 1022.2 in /  34611.7 hPa Calm   8.0 mph /  12.9 km/h 80 % 0.0 in /  0 mm
12:52 21.8 °F /  -5.7 °C 18.0 °F /  -7.8 °C 1022.2 in /  34611.7 hPa SSW 8.0 mph /  12.9 km/h 8.0 mph /  12.9 km/h 79 % 0.0 in /  0 mm
13:02 22.1 °F /  -5.5 °C 18.1 °F /  -7.7 °C 1021.9 in /  34601.5 hPa WSW 6.4 mph /  10.3 km/h 8.0 mph /  12.9 km/h 78 % 0.0 in /  0 mm
13:12 22.1 °F /  -5.5 °C 18.3 °F /  -7.6 °C 1021.9 in /  34601.5 hPa SW 6.4 mph /  10.3 km/h 8.0 mph /  12.9 km/h 79 % 0.0 in /  0 mm
13:17 22.1 °F /  -5.5 °C 18.3 °F /  -7.6 °C 1021.9 in /  34601.5 hPa SW 3.2 mph /  5.1 km/h 8.0 mph /  12.9 km/h 79 % 0.0 in /  0 mm
13:22 22.6 °F /  -5.2 °C 18.4 °F /  -7.6 °C 1021.9 in /  34601.5 hPa WSW 1.6 mph /  2.6 km/h 8.0 mph /  12.9 km/h 77 % 0.0 in /  0 mm
13:27 22.9 °F /  -5.1 °C 18.2 °F /  -7.7 °C 1021.9 in /  34601.5 hPa SW 3.2 mph /  5.1 km/h 6.4 mph /  10.3 km/h 75 % 0.0 in /  0 mm
13:32 23.3 °F /  -4.8 °C 18.0 °F /  -7.8 °C 1021.9 in /  34601.5 hPa South 3.2 mph /  5.1 km/h 8.0 mph /  12.9 km/h 72 % 0.0 in /  0 mm
13:42 22.7 °F /  -5.2 °C 17.8 °F /  -7.9 °C 1021.9 in /  34601.5 hPa SSW 4.8 mph /  7.7 km/h 11.3 mph /  18.2 km/h 74 % 0.0 in /  0 mm
13:52 23.1 °F /  -4.9 °C 18.0 °F /  -7.8 °C 1021.9 in /  34601.5 hPa Calm   8.0 mph /  12.9 km/h 73 % 0.0 in /  0 mm
13:57 23.2 °F /  -4.9 °C 17.9 °F /  -7.8 °C 1021.6 in /  34591.4 hPa SW 4.8 mph /  7.7 km/h 8.0 mph /  12.9 km/h 72 % 0.0 in /  0 mm
14:02 23.3 °F /  -4.8 °C 18.2 °F /  -7.7 °C 1021.6 in /  34591.4 hPa NW 3.2 mph /  5.1 km/h 11.3 mph /  18.2 km/h 73 % 0.0 in /  0 mm
14:07 23.6 °F /  -4.7 °C 18.5 °F /  -7.5 °C 1021.6 in /  34591.4 hPa West 4.8 mph /  7.7 km/h 11.3 mph /  18.2 km/h 73 % 0.0 in /  0 mm
14:12 23.6 °F /  -4.7 °C 18.3 °F /  -7.6 °C 1021.6 in /  34591.4 hPa West 4.8 mph /  7.7 km/h 9.7 mph /  15.6 km/h 72 % 0.0 in /  0 mm
14:17 23.2 °F /  -4.9 °C 17.6 °F /  -8 °C 1021.6 in /  34591.4 hPa WNW 4.8 mph /  7.7 km/h 11.3 mph /  18.2 km/h 71 % 0.0 in /  0 mm
14:22 23.3 °F /  -4.8 °C 18.0 °F /  -7.8 °C 1021.6 in /  34591.4 hPa WNW 4.8 mph /  7.7 km/h 11.3 mph /  18.2 km/h 72 % 0.0 in /  0 mm
14:27 23.5 °F /  -4.7 °C 18.2 °F /  -7.7 °C 1021.6 in /  34591.4 hPa WNW 3.2 mph /  5.1 km/h 11.3 mph /  18.2 km/h 72 % 0.0 in /  0 mm
14:32 23.6 °F /  -4.7 °C 17.8 °F /  -7.9 °C 1021.6 in /  34591.4 hPa SW 6.4 mph /  10.3 km/h 9.7 mph /  15.6 km/h 70 % 0.0 in /  0 mm
14:42 23.3 °F /  -4.8 °C 18.0 °F /  -7.8 °C 1021.6 in /  34591.4 hPa WSW 1.6 mph /  2.6 km/h 9.7 mph /  15.6 km/h 72 % 0.0 in /  0 mm
14:47 23.4 °F /  -4.8 °C 17.8 °F /  -7.9 °C 1021.9 in /  34601.5 hPa West 1.6 mph /  2.6 km/h 9.7 mph /  15.6 km/h 71 % 0.0 in /  0 mm
14:52 23.6 °F /  -4.7 °C 17.8 °F /  -7.9 °C 1021.6 in /  34591.4 hPa WSW 8.0 mph /  12.9 km/h 14.5 mph /  23.3 km/h 70 % 0.0 in /  0 mm
14:57 23.8 °F /  -4.6 °C 18.0 °F /  -7.8 °C 1021.6 in /  34591.4 hPa SW 3.2 mph /  5.1 km/h 14.5 mph /  23.3 km/h 70 % 0.0 in /  0 mm
15:02 23.7 °F /  -4.6 °C 17.4 °F /  -8.1 °C 1021.6 in /  34591.4 hPa WSW 8.0 mph /  12.9 km/h 14.5 mph /  23.3 km/h 68 % 0.0 in /  0 mm
15:07 23.6 °F /  -4.7 °C 17.1 °F /  -8.3 °C 1021.6 in /  34591.4 hPa SW 9.7 mph /  15.6 km/h 12.9 mph /  20.8 km/h 67 % 0.0 in /  0 mm
15:12 23.8 °F /  -4.6 °C 17.3 °F /  -8.2 °C 1021.6 in /  34591.4 hPa WSW 3.2 mph /  5.1 km/h 12.9 mph /  20.8 km/h 67 % 0.0 in /  0 mm
15:17 24.1 °F /  -4.4 °C 17.3 °F /  -8.2 °C 1021.6 in /  34591.4 hPa SW 8.0 mph /  12.9 km/h 12.9 mph /  20.8 km/h 66 % 0.0 in /  0 mm
15:22 24.2 °F /  -4.3 °C 17.9 °F /  -7.8 °C 1021.6 in /  34591.4 hPa SSW 8.0 mph /  12.9 km/h 12.9 mph /  20.8 km/h 68 % 0.0 in /  0 mm
15:27 24.5 °F /  -4.2 °C 17.5 °F /  -8.1 °C 1021.2 in /  34577.8 hPa West 6.4 mph /  10.3 km/h 12.9 mph /  20.8 km/h 65 % 0.0 in /  0 mm
15:32 24.4 °F /  -4.2 °C 17.1 °F /  -8.3 °C 1021.2 in /  34577.8 hPa WSW 6.4 mph /  10.3 km/h 16.1 mph /  25.9 km/h 64 % 0.0 in /  0 mm
15:37 24.7 °F /  -4.1 °C 16.9 °F /  -8.4 °C 1021.2 in /  34577.8 hPa West 3.2 mph /  5.1 km/h 16.1 mph /  25.9 km/h 62 % 0.0 in /  0 mm
15:42 24.7 °F /  -4.1 °C 16.9 °F /  -8.4 °C 1021.2 in /  34577.8 hPa WSW 11.3 mph /  18.2 km/h 16.1 mph /  25.9 km/h 62 % 0.0 in /  0 mm
15:47 24.7 °F /  -4.1 °C 16.7 °F /  -8.5 °C 1021.2 in /  34577.8 hPa SSW 4.8 mph /  7.7 km/h 12.9 mph /  20.8 km/h 61 % 0.0 in /  0 mm
15:52 25.0 °F /  -3.9 °C 17.5 °F /  -8.1 °C 1021.2 in /  34577.8 hPa SW 9.7 mph /  15.6 km/h 16.1 mph /  25.9 km/h 63 % 0.0 in /  0 mm
15:57 24.9 °F /  -3.9 °C 16.9 °F /  -8.4 °C 1020.9 in /  34567.7 hPa WSW 3.2 mph /  5.1 km/h 16.1 mph /  25.9 km/h 61 % 0.0 in /  0 mm
16:02 25.1 °F /  -3.8 °C 17.0 °F /  -8.3 °C 1020.9 in /  34567.7 hPa SW 4.8 mph /  7.7 km/h 16.1 mph /  25.9 km/h 61 % 0.0 in /  0 mm
16:07 24.9 °F /  -3.9 °C 16.1 °F /  -8.8 °C 1020.9 in /  34567.7 hPa North 4.8 mph /  7.7 km/h 16.1 mph /  25.9 km/h 58 % 0.0 in /  0 mm
16:12 24.9 °F /  -3.9 °C 16.3 °F /  -8.7 °C 1020.9 in /  34567.7 hPa West 6.4 mph /  10.3 km/h 12.9 mph /  20.8 km/h 59 % 0.0 in /  0 mm
16:17 24.9 °F /  -3.9 °C 16.1 °F /  -8.8 °C 1020.9 in /  34567.7 hPa WSW 4.8 mph /  7.7 km/h 12.9 mph /  20.8 km/h 58 % 0.0 in /  0 mm
16:22 24.8 °F /  -4 °C 15.7 °F /  -9.1 °C 1020.9 in /  34567.7 hPa WSW 6.4 mph /  10.3 km/h 14.5 mph /  23.3 km/h 57 % 0.0 in /  0 mm
16:32 24.9 °F /  -3.9 °C 16.1 °F /  -8.8 °C 1020.9 in /  34567.7 hPa SW 6.4 mph /  10.3 km/h 14.5 mph /  23.3 km/h 58 % 0.0 in /  0 mm
16:37 24.8 °F /  -4 °C 16.0 °F /  -8.9 °C 1020.9 in /  34567.7 hPa SW 8.0 mph /  12.9 km/h 12.9 mph /  20.8 km/h 58 % 0.0 in /  0 mm
16:42 24.9 °F /  -3.9 °C 16.6 °F /  -8.6 °C 1020.5 in /  34554.1 hPa SW 9.7 mph /  15.6 km/h 12.9 mph /  20.8 km/h 60 % 0.0 in /  0 mm
16:47 25.0 °F /  -3.9 °C 17.2 °F /  -8.2 °C 1020.5 in /  34554.1 hPa West 6.4 mph /  10.3 km/h 12.9 mph /  20.8 km/h 62 % 0.0 in /  0 mm
16:52 25.1 °F /  -3.8 °C 16.5 °F /  -8.6 °C 1020.9 in /  34567.7 hPa WNW 3.2 mph /  5.1 km/h 11.3 mph /  18.2 km/h 59 % 0.0 in /  0 mm
16:57 25.0 °F /  -3.9 °C 16.2 °F /  -8.8 °C 1020.9 in /  34567.7 hPa WSW 4.8 mph /  7.7 km/h 16.1 mph /  25.9 km/h 58 % 0.0 in /  0 mm
17:02 24.8 °F /  -4 °C 16.5 °F /  -8.6 °C 1020.9 in /  34567.7 hPa WSW 1.6 mph /  2.6 km/h 16.1 mph /  25.9 km/h 60 % 0.0 in /  0 mm
17:12 25.1 °F /  -3.8 °C 16.5 °F /  -8.6 °C 1020.9 in /  34567.7 hPa WSW 6.4 mph /  10.3 km/h 19.3 mph /  31.1 km/h 59 % 0.0 in /  0 mm
17:17 25.3 °F /  -3.7 °C 15.6 °F /  -9.1 °C 1020.9 in /  34567.7 hPa WSW 3.2 mph /  5.1 km/h 12.9 mph /  20.8 km/h 55 % 0.0 in /  0 mm
17:22 25.0 °F /  -3.9 °C 15.9 °F /  -8.9 °C 1020.9 in /  34567.7 hPa WNW 4.8 mph /  7.7 km/h 11.3 mph /  18.2 km/h 57 % 0.0 in /  0 mm
17:27 25.2 °F /  -3.8 °C 16.1 °F /  -8.8 °C 1020.9 in /  34567.7 hPa WSW 3.2 mph /  5.1 km/h 11.3 mph /  18.2 km/h 57 % 0.0 in /  0 mm
17:32 25.6 °F /  -3.6 °C 16.4 °F /  -8.7 °C 1020.9 in /  34567.7 hPa WNW 8.0 mph /  12.9 km/h 11.3 mph /  18.2 km/h 57 % 0.0 in /  0 mm
17:37 25.5 °F /  -3.6 °C 16.4 °F /  -8.7 °C 1020.9 in /  34567.7 hPa West 1.6 mph /  2.6 km/h 9.7 mph /  15.6 km/h 57 % 0.0 in /  0 mm
17:42 25.7 °F /  -3.5 °C 16.8 °F /  -8.4 °C 1020.9 in /  34567.7 hPa SW 8.0 mph /  12.9 km/h 9.7 mph /  15.6 km/h 58 % 0.0 in /  0 mm
17:47 25.4 °F /  -3.7 °C 16.3 °F /  -8.7 °C 1020.9 in /  34567.7 hPa WSW 3.2 mph /  5.1 km/h 9.7 mph /  15.6 km/h 57 % 0.0 in /  0 mm
17:52 25.2 °F /  -3.8 °C 16.3 °F /  -8.7 °C 1020.9 in /  34567.7 hPa SW 4.8 mph /  7.7 km/h 12.9 mph /  20.8 km/h 58 % 0.0 in /  0 mm
17:57 25.0 °F /  -3.9 °C 15.9 °F /  -8.9 °C 1020.9 in /  34567.7 hPa SW 8.0 mph /  12.9 km/h 12.9 mph /  20.8 km/h 57 % 0.0 in /  0 mm
18:02 25.3 °F /  -3.7 °C 15.9 °F /  -8.9 °C 1020.5 in /  34554.1 hPa West 4.8 mph /  7.7 km/h 9.7 mph /  15.6 km/h 56 % 0.0 in /  0 mm
18:12 25.9 °F /  -3.4 °C 16.4 °F /  -8.7 °C 1020.9 in /  34567.7 hPa WSW 4.8 mph /  7.7 km/h 9.7 mph /  15.6 km/h 56 % 0.0 in /  0 mm
18:17 25.7 °F /  -3.5 °C 15.7 °F /  -9.1 °C 1020.9 in /  34567.7 hPa SW 1.6 mph /  2.6 km/h 9.7 mph /  15.6 km/h 54 % 0.0 in /  0 mm
18:22 25.5 °F /  -3.6 °C 16.4 °F /  -8.7 °C 1020.5 in /  34554.1 hPa SSW 1.6 mph /  2.6 km/h 11.3 mph /  18.2 km/h 57 % 0.0 in /  0 mm
18:27 25.6 °F /  -3.6 °C 15.9 °F /  -8.9 °C 1020.9 in /  34567.7 hPa South 1.6 mph /  2.6 km/h 11.3 mph /  18.2 km/h 55 % 0.0 in /  0 mm
18:32 25.9 °F /  -3.4 °C 15.9 °F /  -8.9 °C 1020.9 in /  34567.7 hPa West 1.6 mph /  2.6 km/h 11.3 mph /  18.2 km/h 54 % 0.0 in /  0 mm
18:42 25.8 °F /  -3.4 °C 15.8 °F /  -9 °C 1020.5 in /  34554.1 hPa SW 3.2 mph /  5.1 km/h 11.3 mph /  18.2 km/h 54 % 0.0 in /  0 mm
18:47 25.9 °F /  -3.4 °C 16.7 °F /  -8.5 °C 1020.5 in /  34554.1 hPa WSW 3.2 mph /  5.1 km/h 11.3 mph /  18.2 km/h 57 % 0.0 in /  0 mm
18:52 25.7 °F /  -3.5 °C 16.0 °F /  -8.9 °C 1020.9 in /  34567.7 hPa West 3.2 mph /  5.1 km/h 11.3 mph /  18.2 km/h 55 % 0.0 in /  0 mm
18:57 25.6 °F /  -3.6 °C 16.4 °F /  -8.7 °C 1020.5 in /  34554.1 hPa SW 1.6 mph /  2.6 km/h 11.3 mph /  18.2 km/h 57 % 0.0 in /  0 mm
19:02 25.7 °F /  -3.5 °C 16.8 °F /  -8.4 °C 1020.5 in /  34554.1 hPa SW 1.6 mph /  2.6 km/h 11.3 mph /  18.2 km/h 58 % 0.0 in /  0 mm
19:12 25.9 °F /  -3.4 °C 16.4 °F /  -8.7 °C 1020.5 in /  34554.1 hPa West 8.0 mph /  12.9 km/h 8.0 mph /  12.9 km/h 56 % 0.0 in /  0 mm
19:17 25.8 °F /  -3.4 °C 16.9 °F /  -8.4 °C 1020.5 in /  34554.1 hPa WSW 6.4 mph /  10.3 km/h 9.7 mph /  15.6 km/h 58 % 0.0 in /  0 mm
19:22 25.4 °F /  -3.7 °C 16.5 °F /  -8.6 °C 1020.5 in /  34554.1 hPa WSW 4.8 mph /  7.7 km/h 9.7 mph /  15.6 km/h 58 % 0.0 in /  0 mm
19:27 25.3 °F /  -3.7 °C 16.7 °F /  -8.5 °C 1020.5 in /  34554.1 hPa WSW 1.6 mph /  2.6 km/h 9.7 mph /  15.6 km/h 59 % 0.0 in /  0 mm
19:32 25.4 °F /  -3.7 °C 16.3 °F /  -8.7 °C 1020.5 in /  34554.1 hPa WNW 1.6 mph /  2.6 km/h 8.0 mph /  12.9 km/h 57 % 0.0 in /  0 mm
19:37 25.5 °F /  -3.6 °C 16.6 °F /  -8.6 °C 1020.5 in /  34554.1 hPa WNW 4.8 mph /  7.7 km/h 6.4 mph /  10.3 km/h 58 % 0.0 in /  0 mm
19:42 25.3 °F /  -3.7 °C 16.4 °F /  -8.7 °C 1020.5 in /  34554.1 hPa West 3.2 mph /  5.1 km/h 8.0 mph /  12.9 km/h 58 % 0.0 in /  0 mm
19:47 25.2 °F /  -3.8 °C 16.6 °F /  -8.6 °C 1020.5 in /  34554.1 hPa WNW 3.2 mph /  5.1 km/h 8.0 mph /  12.9 km/h 59 % 0.0 in /  0 mm
19:52 24.9 °F /  -3.9 °C 16.6 °F /  -8.6 °C 1020.5 in /  34554.1 hPa WNW 4.8 mph /  7.7 km/h 9.7 mph /  15.6 km/h 60 % 0.0 in /  0 mm
19:57 24.7 °F /  -4.1 °C 16.7 °F /  -8.5 °C 1020.5 in /  34554.1 hPa West 4.8 mph /  7.7 km/h 9.7 mph /  15.6 km/h 61 % 0.0 in /  0 mm
20:02 24.4 °F /  -4.2 °C 16.6 °F /  -8.6 °C 1020.9 in /  34567.7 hPa West 4.8 mph /  7.7 km/h 9.7 mph /  15.6 km/h 62 % 0.0 in /  0 mm
20:12 23.9 °F /  -4.5 °C 16.9 °F /  -8.4 °C 1020.5 in /  34554.1 hPa WNW 1.6 mph /  2.6 km/h 6.4 mph /  10.3 km/h 65 % 0.0 in /  0 mm
20:17 23.8 °F /  -4.6 °C 16.8 °F /  -8.4 °C 1020.5 in /  34554.1 hPa WNW 1.6 mph /  2.6 km/h 6.4 mph /  10.3 km/h 65 % 0.0 in /  0 mm
20:22 23.7 °F /  -4.6 °C 17.0 °F /  -8.3 °C 1020.5 in /  34554.1 hPa WNW 3.2 mph /  5.1 km/h 4.8 mph /  7.7 km/h 66 % 0.0 in /  0 mm
20:27 23.6 °F /  -4.7 °C 16.9 °F /  -8.4 °C 1020.5 in /  34554.1 hPa Calm   4.8 mph /  7.7 km/h 66 % 0.0 in /  0 mm
20:32 23.4 °F /  -4.8 °C 16.9 °F /  -8.4 °C 1020.5 in /  34554.1 hPa WNW 1.6 mph /  2.6 km/h 3.2 mph /  5.1 km/h 67 % 0.0 in /  0 mm
20:37 23.2 °F /  -4.9 °C 17.0 °F /  -8.3 °C 1020.5 in /  34554.1 hPa Calm   3.2 mph /  5.1 km/h 68 % 0.0 in /  0 mm
20:42 22.9 °F /  -5.1 °C 16.9 °F /  -8.4 °C 1020.5 in /  34554.1 hPa WNW 3.2 mph /  5.1 km/h 4.8 mph /  7.7 km/h 69 % 0.0 in /  0 mm
20:47 22.7 °F /  -5.2 °C 16.7 °F /  -8.5 °C 1020.9 in /  34567.7 hPa WNW 3.2 mph /  5.1 km/h 4.8 mph /  7.7 km/h 69 % 0.0 in /  0 mm
20:52 22.6 °F /  -5.2 °C 16.8 °F /  -8.4 °C 1020.9 in /  34567.7 hPa WNW 3.2 mph /  5.1 km/h 4.8 mph /  7.7 km/h 70 % 0.0 in /  0 mm
20:57 22.4 °F /  -5.3 °C 16.9 °F /  -8.4 °C 1020.9 in /  34567.7 hPa WNW 1.6 mph /  2.6 km/h 4.8 mph /  7.7 km/h 71 % 0.0 in /  0 mm
21:02 22.2 °F /  -5.4 °C 16.9 °F /  -8.4 °C 1020.9 in /  34567.7 hPa WNW 1.6 mph /  2.6 km/h 4.8 mph /  7.7 km/h 72 % 0.0 in /  0 mm
21:07 22.0 °F /  -5.6 °C 16.7 °F /  -8.5 °C 1020.9 in /  34567.7 hPa WNW 4.8 mph /  7.7 km/h 6.4 mph /  10.3 km/h 72 % 0.0 in /  0 mm
21:12 21.9 °F /  -5.6 °C 16.2 °F /  -8.8 °C 1021.2 in /  34577.8 hPa West 3.2 mph /  5.1 km/h 11.3 mph /  18.2 km/h 70 % 0.0 in /  0 mm
21:17 21.9 °F /  -5.6 °C 15.7 °F /  -9.1 °C 1021.2 in /  34577.8 hPa NW 3.2 mph /  5.1 km/h 11.3 mph /  18.2 km/h 68 % 0.0 in /  0 mm
21:22 21.8 °F /  -5.7 °C 15.2 °F /  -9.3 °C 1021.2 in /  34577.8 hPa Calm   11.3 mph /  18.2 km/h 66 % 0.0 in /  0 mm
21:27 21.7 °F /  -5.7 °C 15.3 °F /  -9.3 °C 1021.2 in /  34577.8 hPa WNW 4.8 mph /  7.7 km/h 9.7 mph /  15.6 km/h 67 % 0.0 in /  0 mm
21:32 21.4 °F /  -5.9 °C 15.0 °F /  -9.4 °C 1021.2 in /  34577.8 hPa Calm   9.7 mph /  15.6 km/h 67 % 0.0 in /  0 mm
21:37 21.2 °F /  -6 °C 15.1 °F /  -9.4 °C 1021.2 in /  34577.8 hPa West 3.2 mph /  5.1 km/h 6.4 mph /  10.3 km/h 68 % 0.0 in /  0 mm
21:42 21.1 °F /  -6.1 °C 15.0 °F /  -9.4 °C 1021.6 in /  34591.4 hPa WNW 1.6 mph /  2.6 km/h 6.4 mph /  10.3 km/h 68 % 0.0 in /  0 mm
21:47 21.0 °F /  -6.1 °C 14.9 °F /  -9.5 °C 1021.6 in /  34591.4 hPa Calm   4.8 mph /  7.7 km/h 68 % 0.0 in /  0 mm
21:52 21.0 °F /  -6.1 °C 14.6 °F /  -9.7 °C 1021.6 in /  34591.4 hPa NW 3.2 mph /  5.1 km/h 4.8 mph /  7.7 km/h 67 % 0.0 in /  0 mm
21:57 21.0 °F /  -6.1 °C 14.6 °F /  -9.7 °C 1021.6 in /  34591.4 hPa NW 1.6 mph /  2.6 km/h 4.8 mph /  7.7 km/h 67 % 0.0 in /  0 mm
22:02 20.8 °F /  -6.2 °C 14.4 °F /  -9.8 °C 1021.6 in /  34591.4 hPa Calm   4.8 mph /  7.7 km/h 67 % 0.0 in /  0 mm
22:07 20.6 °F /  -6.3 °C 14.5 °F /  -9.7 °C 1021.6 in /  34591.4 hPa Calm   3.2 mph /  5.1 km/h 68 % 0.0 in /  0 mm
22:12 20.3 °F /  -6.5 °C 14.2 °F /  -9.9 °C 1021.6 in /  34591.4 hPa WNW 4.8 mph /  7.7 km/h 4.8 mph /  7.7 km/h 68 % 0.0 in /  0 mm
22:17 20.1 °F /  -6.6 °C 14.2 °F /  -9.9 °C 1021.6 in /  34591.4 hPa WNW 1.6 mph /  2.6 km/h 4.8 mph /  7.7 km/h 69 % 0.0 in /  0 mm
22:22 19.8 °F /  -6.8 °C 14.4 °F /  -9.8 °C 1021.6 in /  34591.4 hPa WNW 1.6 mph /  2.6 km/h 4.8 mph /  7.7 km/h 71 % 0.0 in /  0 mm
22:27 19.3 °F /  -7.1 °C 14.3 °F /  -9.8 °C 1021.6 in /  34591.4 hPa Calm   4.8 mph /  7.7 km/h 73 % 0.0 in /  0 mm
22:32 18.9 °F /  -7.3 °C 14.2 °F /  -9.9 °C 1021.6 in /  34591.4 hPa Calm   3.2 mph /  5.1 km/h 74 % 0.0 in /  0 mm
22:37 18.6 °F /  -7.4 °C 14.3 °F /  -9.8 °C 1021.6 in /  34591.4 hPa Calm   3.2 mph /  5.1 km/h 76 % 0.0 in /  0 mm
22:42 18.6 °F /  -7.4 °C 14.5 °F /  -9.7 °C 1021.6 in /  34591.4 hPa Calm   1.6 mph /  2.6 km/h 77 % 0.0 in /  0 mm
22:47 18.6 °F /  -7.4 °C 14.3 °F /  -9.8 °C 1021.6 in /  34591.4 hPa Calm   1.6 mph /  2.6 km/h 76 % 0.0 in /  0 mm
22:52 18.6 °F /  -7.4 °C 14.1 °F /  -9.9 °C 1021.6 in /  34591.4 hPa Calm   1.6 mph /  2.6 km/h 75 % 0.0 in /  0 mm
22:57 18.6 °F /  -7.4 °C 14.1 °F /  -9.9 °C 1021.6 in /  34591.4 hPa Calm   1.6 mph /  2.6 km/h 75 % 0.0 in /  0 mm
23:02 18.5 °F /  -7.5 °C 14.2 °F /  -9.9 °C 1021.6 in /  34591.4 hPa Calm   1.6 mph /  2.6 km/h 76 % 0.0 in /  0 mm
23:12 18.2 °F /  -7.7 °C 14.1 °F /  -9.9 °C 1021.6 in /  34591.4 hPa Calm   1.6 mph /  2.6 km/h 77 % 0.0 in /  0 mm
23:17 18.1 °F /  -7.7 °C 13.8 °F /  -10.1 °C 1021.6 in /  34591.4 hPa Calm     76 % 0.0 in /  0 mm
23:22 18.2 °F /  -7.7 °C 13.9 °F /  -10.1 °C 1021.6 in /  34591.4 hPa Calm   1.6 mph /  2.6 km/h 76 % 0.0 in /  0 mm
23:32 18.2 °F /  -7.7 °C 13.5 °F /  -10.3 °C 1021.6 in /  34591.4 hPa Calm   1.6 mph /  2.6 km/h 74 % 0.0 in /  0 mm
23:37 18.2 °F /  -7.7 °C 13.3 °F /  -10.4 °C 1021.6 in /  34591.4 hPa Calm   1.6 mph /  2.6 km/h 73 % 0.0 in /  0 mm
23:42 18.2 °F /  -7.7 °C 13.3 °F /  -10.4 °C 1021.6 in /  34591.4 hPa Calm   1.6 mph /  2.6 km/h 73 % 0.0 in /  0 mm
23:52 18.2 °F /  -7.7 °C 13.5 °F /  -10.3 °C 1021.6 in /  34591.4 hPa Calm     74 % 0.0 in /  0 mm
23:57 18.0 °F /  -7.8 °C 13.9 °F /  -10.1 °C 1021.6 in /  34591.4 hPa Calm     77 % 0.0 in /  0 mm
Meteo18
Compliments of Weather Underground - 4 mb

Script developed by  Jim McMurry - jmcmurry@mwt.net Adapted for the template by  Wim van der Kuil - Leuven-Template.eu

You find our weather info also at:

European Weather Network

Weather Underground

Equipment we use:

Weather-station
Davis Vue

Weather-program
Meteobridge

Weather-server
Raspberry PI 2 B+

Provider
1 and 1

Davis Vue

Meteobridge

Raspberry PI 2 B+

1 and 1